ASA2501 CYUL-PAWG
Flight info
| Callsign | ASA2501 |
|---|---|
| Flight time | N/A |
| Altitude | 32000 |
| Route | PIGNA Q911 VIDGO Q919 DASUG/N0460F340 Q919 OMVEG Q940 KOBID Q908 YOUNG/N0457F360 Q908 TAGOT Q819 YEGGA Q862 YQU J515 LEPET DCT 56N126W |
| Aircraft | B738/M-SDE2E3FGHIRWXY/LB1 |
Departure
| Time | N/A |
|---|---|
| Airport | Montreal / Pierre Elliott Trudeau International Airport (CYUL) |
Arrival
| Time | 2026-04-29 20:08 |
|---|---|
| Airport | Wrangell Airport (PAWG) |
| Time | Latitude | Longitude | Altitude | Speed | Heading |
|---|---|---|---|---|---|
| 2026-04-29 14:54 | 46.85870 | -78.60034 | 32011 ft | 441 kts | 291° |
| 2026-04-29 14:54 | 46.86764 | -78.62697 | 32011 ft | 441 kts | 291° |
| 2026-04-29 14:55 | 46.89463 | -78.70751 | 32011 ft | 441 kts | 291° |
| 2026-04-29 14:55 | 46.92151 | -78.78800 | 32012 ft | 440 kts | 291° |
| 2026-04-29 14:56 | 46.94800 | -78.86745 | 32011 ft | 427 kts | 291° |
| 2026-04-29 14:56 | 46.98789 | -78.98774 | 32022 ft | 422 kts | 290° |
| 2026-04-29 14:57 | 47.07564 | -79.25440 | 32045 ft | 417 kts | 290° |
| 2026-04-29 14:57 | 47.10050 | -79.33079 | 32048 ft | 426 kts | 290° |
| 2026-04-29 14:58 | 47.12616 | -79.40951 | 32027 ft | 428 kts | 290° |
| 2026-04-29 14:58 | 47.15181 | -79.48831 | 32028 ft | 427 kts | 290° |
| 2026-04-29 14:59 | 47.17737 | -79.56719 | 32023 ft | 427 kts | 290° |
| 2026-04-29 14:59 | 47.20288 | -79.64613 | 32058 ft | 427 kts | 289° |
| 2026-04-29 15:00 | 47.22826 | -79.72500 | 32036 ft | 426 kts | 289° |
| 2026-04-29 15:00 | 47.25358 | -79.80392 | 32037 ft | 426 kts | 289° |
| 2026-04-29 15:01 | 47.27878 | -79.88271 | 32036 ft | 425 kts | 289° |
| 2026-04-29 15:01 | 47.30375 | -79.96092 | 32044 ft | 425 kts | 289° |
| 2026-04-29 15:02 | 47.32884 | -80.03986 | 32037 ft | 426 kts | 289° |
| 2026-04-29 15:02 | 47.35394 | -80.11903 | 32035 ft | 426 kts | 289° |
| 2026-04-29 15:03 | 47.37894 | -80.19821 | 32029 ft | 426 kts | 289° |
| 2026-04-29 15:03 | 47.40391 | -80.27749 | 32039 ft | 427 kts | 289° |
| 2026-04-29 15:04 | 47.42893 | -80.35718 | 32031 ft | 428 kts | 289° |
| 2026-04-29 15:04 | 47.45377 | -80.43648 | 32032 ft | 428 kts | 289° |
| 2026-04-29 15:05 | 47.47872 | -80.51644 | 32042 ft | 429 kts | 289° |
| 2026-04-29 15:05 | 47.50367 | -80.59670 | 32035 ft | 429 kts | 288° |
| 2026-04-29 15:06 | 47.52858 | -80.67706 | 32038 ft | 430 kts | 288° |
| 2026-04-29 15:06 | 47.55353 | -80.75775 | 32038 ft | 430 kts | 288° |
| 2026-04-29 15:07 | 47.57780 | -80.83865 | 32042 ft | 429 kts | 285° |
| 2026-04-29 15:07 | 47.59812 | -80.92144 | 32049 ft | 427 kts | 283° |
| 2026-04-29 15:08 | 47.61759 | -81.00460 | 32046 ft | 427 kts | 283° |
| 2026-04-29 15:08 | 47.63708 | -81.08737 | 32048 ft | 427 kts | 283° |
| 2026-04-29 15:09 | 47.65674 | -81.17031 | 32054 ft | 427 kts | 283° |
| 2026-04-29 15:09 | 47.67645 | -81.25341 | 32054 ft | 426 kts | 283° |
| 2026-04-29 15:10 | 47.69612 | -81.33659 | 32065 ft | 427 kts | 283° |
| 2026-04-29 15:10 | 47.71570 | -81.41972 | 32059 ft | 427 kts | 283° |
| 2026-04-29 15:11 | 47.73514 | -81.50254 | 32057 ft | 427 kts | 283° |
| 2026-04-29 15:11 | 47.75463 | -81.58596 | 32064 ft | 428 kts | 283° |
| 2026-04-29 15:12 | 47.77411 | -81.66973 | 32057 ft | 429 kts | 283° |
| 2026-04-29 15:12 | 47.79358 | -81.75364 | 32061 ft | 429 kts | 283° |
| 2026-04-29 15:13 | 47.81292 | -81.83742 | 32059 ft | 428 kts | 283° |
| 2026-04-29 15:13 | 47.83208 | -81.92061 | 32065 ft | 427 kts | 283° |
| 2026-04-29 15:14 | 47.85127 | -82.00431 | 32078 ft | 428 kts | 283° |
| 2026-04-29 15:14 | 47.87047 | -82.08838 | 32077 ft | 428 kts | 283° |
| 2026-04-29 15:15 | 47.88959 | -82.17239 | 32068 ft | 429 kts | 283° |
| 2026-04-29 15:15 | 47.90869 | -82.25671 | 32076 ft | 429 kts | 283° |
| 2026-04-29 15:16 | 47.92759 | -82.34071 | 32070 ft | 430 kts | 283° |
| 2026-04-29 15:16 | 47.94813 | -82.43210 | 32090 ft | 431 kts | 283° |
| 2026-04-29 15:17 | 47.96565 | -82.51021 | 32070 ft | 431 kts | 283° |
| 2026-04-29 15:17 | 47.98461 | -82.59528 | 32073 ft | 432 kts | 283° |
| 2026-04-29 15:18 | 48.00353 | -82.68055 | 32086 ft | 432 kts | 283° |
| 2026-04-29 15:18 | 48.02225 | -82.76517 | 32107 ft | 433 kts | 283° |
| 2026-04-29 15:19 | 48.04110 | -82.85075 | 32091 ft | 433 kts | 283° |
| 2026-04-29 15:19 | 48.05991 | -82.93646 | 32084 ft | 433 kts | 283° |
| 2026-04-29 15:20 | 48.07860 | -83.02207 | 32088 ft | 433 kts | 283° |
| 2026-04-29 15:20 | 48.09726 | -83.10785 | 32078 ft | 434 kts | 283° |
| 2026-04-29 15:21 | 48.11585 | -83.19364 | 32098 ft | 434 kts | 284° |
| 2026-04-29 15:21 | 48.13441 | -83.27964 | 32084 ft | 434 kts | 283° |
| 2026-04-29 15:22 | 48.15276 | -83.36507 | 32088 ft | 434 kts | 283° |
| 2026-04-29 15:22 | 48.17118 | -83.45116 | 32093 ft | 434 kts | 283° |
| 2026-04-29 15:23 | 48.18951 | -83.53724 | 32092 ft | 433 kts | 283° |
| 2026-04-29 15:23 | 48.20779 | -83.62339 | 32103 ft | 434 kts | 284° |
| 2026-04-29 15:24 | 48.22614 | -83.71031 | 32106 ft | 440 kts | 284° |
| 2026-04-29 15:24 | 48.24450 | -83.79771 | 32097 ft | 443 kts | 283° |
| 2026-04-29 15:25 | 48.26298 | -83.88586 | 32103 ft | 444 kts | 283° |
| 2026-04-29 15:25 | 48.28144 | -83.97437 | 32098 ft | 444 kts | 283° |
| 2026-04-29 15:26 | 48.29984 | -84.06299 | 32103 ft | 444 kts | 284° |
| 2026-04-29 15:26 | 48.31812 | -84.15143 | 32093 ft | 443 kts | 284° |
| 2026-04-29 15:27 | 48.33630 | -84.23986 | 32099 ft | 441 kts | 284° |
| 2026-04-29 15:27 | 48.35437 | -84.32805 | 32094 ft | 441 kts | 284° |
| 2026-04-29 15:28 | 48.37224 | -84.41561 | 32112 ft | 439 kts | 284° |
| 2026-04-29 15:28 | 48.39009 | -84.50353 | 32105 ft | 439 kts | 284° |
| 2026-04-29 15:29 | 48.40785 | -84.59144 | 32096 ft | 439 kts | 284° |
| 2026-04-29 15:30 | 48.44315 | -84.76726 | 32101 ft | 438 kts | 283° |
| 2026-04-29 15:30 | 48.46065 | -84.85506 | 32113 ft | 439 kts | 284° |
| 2026-04-29 15:31 | 48.47806 | -84.94275 | 32112 ft | 439 kts | 284° |
| 2026-04-29 15:31 | 48.49551 | -85.03106 | 32109 ft | 440 kts | 284° |
| 2026-04-29 15:32 | 48.51297 | -85.11979 | 32099 ft | 440 kts | 284° |
| 2026-04-29 15:32 | 48.53032 | -85.20839 | 32101 ft | 441 kts | 284° |
| 2026-04-29 15:33 | 48.54753 | -85.29669 | 32107 ft | 441 kts | 283° |
| 2026-04-29 15:33 | 48.56482 | -85.38584 | 32118 ft | 442 kts | 283° |
| 2026-04-29 15:34 | 48.58202 | -85.47488 | 32102 ft | 442 kts | 283° |
| 2026-04-29 15:34 | 48.59919 | -85.56413 | 32103 ft | 442 kts | 283° |
| 2026-04-29 15:35 | 48.61620 | -85.65290 | 32118 ft | 442 kts | 283° |
| 2026-04-29 15:35 | 48.63324 | -85.74223 | 32110 ft | 443 kts | 283° |
| 2026-04-29 15:36 | 48.65024 | -85.83177 | 32107 ft | 443 kts | 283° |
| 2026-04-29 15:36 | 48.66723 | -85.92165 | 32109 ft | 443 kts | 283° |
| 2026-04-29 15:37 | 48.68410 | -86.01136 | 32110 ft | 443 kts | 283° |
| 2026-04-29 15:37 | 48.70086 | -86.10088 | 32114 ft | 442 kts | 283° |
| 2026-04-29 15:38 | 48.71748 | -86.19014 | 32112 ft | 442 kts | 283° |
| 2026-04-29 15:38 | 48.73409 | -86.27969 | 32064 ft | 443 kts | 283° |
| 2026-04-29 15:39 | 48.75291 | -86.36894 | 32071 ft | 444 kts | 289° |
| 2026-04-29 15:39 | 48.77696 | -86.45543 | 32064 ft | 445 kts | 291° |
| 2026-04-29 15:40 | 48.80142 | -86.54130 | 32078 ft | 446 kts | 290° |
| 2026-04-29 15:40 | 48.82557 | -86.62784 | 32088 ft | 447 kts | 290° |
| 2026-04-29 15:41 | 48.84960 | -86.71538 | 32099 ft | 447 kts | 290° |
| 2026-04-29 15:41 | 48.87327 | -86.80234 | 32096 ft | 448 kts | 290° |
| 2026-04-29 15:42 | 48.89699 | -86.88986 | 32111 ft | 448 kts | 290° |
| 2026-04-29 15:42 | 48.92071 | -86.97768 | 32109 ft | 449 kts | 290° |
| 2026-04-29 15:43 | 48.94442 | -87.06571 | 32112 ft | 450 kts | 290° |
| 2026-04-29 15:43 | 48.96809 | -87.15395 | 32104 ft | 450 kts | 289° |
| 2026-04-29 15:44 | 48.99172 | -87.24237 | 32107 ft | 451 kts | 289° |
| 2026-04-29 15:44 | 49.01525 | -87.33079 | 32106 ft | 451 kts | 289° |
| 2026-04-29 15:45 | 49.03863 | -87.41895 | 32105 ft | 451 kts | 289° |
| 2026-04-29 15:45 | 49.05827 | -87.49325 | 32114 ft | 452 kts | 289° |
| 2026-04-29 15:46 | 49.08552 | -87.59676 | 32102 ft | 452 kts | 289° |
| 2026-04-29 15:46 | 49.10885 | -87.68575 | 32105 ft | 452 kts | 289° |
| 2026-04-29 15:47 | 49.12837 | -87.76050 | 32106 ft | 453 kts | 289° |
| 2026-04-29 15:47 | 49.15150 | -87.84936 | 32107 ft | 453 kts | 289° |
| 2026-04-29 15:48 | 49.17471 | -87.93885 | 32113 ft | 453 kts | 289° |
| 2026-04-29 15:48 | 49.19790 | -88.02868 | 32109 ft | 454 kts | 289° |
| 2026-04-29 15:49 | 49.22105 | -88.11864 | 32112 ft | 454 kts | 289° |
| 2026-04-29 15:49 | 49.24413 | -88.20873 | 32105 ft | 454 kts | 289° |
| 2026-04-29 15:50 | 49.26711 | -88.29879 | 32113 ft | 455 kts | 289° |
| 2026-04-29 15:50 | 49.28985 | -88.38830 | 32116 ft | 455 kts | 289° |
| 2026-04-29 15:51 | 49.31273 | -88.47867 | 32107 ft | 455 kts | 289° |
| 2026-04-29 15:51 | 49.33559 | -88.56929 | 32114 ft | 455 kts | 289° |
| 2026-04-29 15:52 | 49.35830 | -88.65972 | 32119 ft | 455 kts | 289° |
| 2026-04-29 15:52 | 49.38108 | -88.75082 | 32127 ft | 456 kts | 289° |
| 2026-04-29 15:53 | 49.40374 | -88.84175 | 32130 ft | 456 kts | 289° |
| 2026-04-29 15:53 | 49.42631 | -88.93273 | 32126 ft | 457 kts | 289° |
| 2026-04-29 15:54 | 49.44880 | -89.02372 | 32128 ft | 456 kts | 289° |
| 2026-04-29 15:54 | 49.47127 | -89.11503 | 32137 ft | 456 kts | 289° |
| 2026-04-29 15:55 | 49.49364 | -89.20632 | 32138 ft | 456 kts | 289° |
| 2026-04-29 15:55 | 49.51586 | -89.29739 | 32131 ft | 456 kts | 289° |
| 2026-04-29 15:56 | 49.53803 | -89.38856 | 32132 ft | 456 kts | 289° |
| 2026-04-29 15:56 | 49.56017 | -89.48008 | 32132 ft | 456 kts | 289° |
| 2026-04-29 15:57 | 49.58226 | -89.57168 | 32128 ft | 456 kts | 289° |
| 2026-04-29 15:57 | 49.60429 | -89.66348 | 32131 ft | 456 kts | 289° |
| 2026-04-29 15:58 | 49.62625 | -89.75535 | 32134 ft | 456 kts | 289° |
| 2026-04-29 15:58 | 49.64810 | -89.84716 | 32136 ft | 456 kts | 289° |
| 2026-04-29 15:59 | 49.66978 | -89.93865 | 32131 ft | 456 kts | 288° |
| 2026-04-29 15:59 | 49.69166 | -90.03132 | 32145 ft | 456 kts | 289° |
| 2026-04-29 16:00 | 49.71313 | -90.12272 | 32134 ft | 456 kts | 289° |
| 2026-04-29 16:00 | 49.73468 | -90.21480 | 32143 ft | 456 kts | 288° |
| 2026-04-29 16:01 | 49.75617 | -90.30704 | 32143 ft | 456 kts | 288° |
| 2026-04-29 16:01 | 49.77758 | -90.39936 | 32145 ft | 456 kts | 288° |
| 2026-04-29 16:02 | 49.79899 | -90.49198 | 32152 ft | 456 kts | 289° |
| 2026-04-29 16:02 | 49.82026 | -90.58446 | 32145 ft | 457 kts | 289° |
| 2026-04-29 16:03 | 49.84151 | -90.67723 | 32146 ft | 457 kts | 288° |
| 2026-04-29 16:03 | 49.86270 | -90.77022 | 32146 ft | 457 kts | 288° |
| 2026-04-29 16:04 | 49.88379 | -90.86313 | 32147 ft | 457 kts | 288° |
| 2026-04-29 16:04 | 49.90480 | -90.95607 | 32151 ft | 457 kts | 289° |
| 2026-04-29 16:05 | 49.92564 | -91.04863 | 32150 ft | 457 kts | 288° |
| 2026-04-29 16:05 | 49.94653 | -91.14189 | 32154 ft | 457 kts | 288° |
| 2026-04-29 16:06 | 49.96732 | -91.23514 | 32154 ft | 457 kts | 288° |
| 2026-04-29 16:06 | 49.98806 | -91.32850 | 32155 ft | 457 kts | 288° |
| 2026-04-29 16:07 | 50.00871 | -91.42196 | 32160 ft | 456 kts | 288° |
| 2026-04-29 16:07 | 50.02925 | -91.51532 | 32154 ft | 456 kts | 288° |
| 2026-04-29 16:08 | 50.04973 | -91.60883 | 32157 ft | 456 kts | 288° |
| 2026-04-29 16:08 | 50.07014 | -91.70241 | 32155 ft | 456 kts | 288° |
| 2026-04-29 16:09 | 50.09035 | -91.79546 | 32155 ft | 456 kts | 288° |
| 2026-04-29 16:09 | 50.11053 | -91.88932 | 32103 ft | 456 kts | 287° |
| 2026-04-29 16:10 | 50.12136 | -91.98659 | 32108 ft | 456 kts | 276° |
| 2026-04-29 16:10 | 50.12796 | -92.08484 | 32115 ft | 456 kts | 276° |
| 2026-04-29 16:11 | 50.13462 | -92.18332 | 32117 ft | 457 kts | 276° |
| 2026-04-29 16:11 | 50.14153 | -92.28173 | 32137 ft | 457 kts | 276° |
| 2026-04-29 16:12 | 50.14853 | -92.38026 | 32146 ft | 457 kts | 277° |
| 2026-04-29 16:12 | 50.15548 | -92.47901 | 32153 ft | 458 kts | 277° |
| 2026-04-29 16:13 | 50.16230 | -92.57701 | 32156 ft | 458 kts | 277° |
| 2026-04-29 16:13 | 50.16908 | -92.67595 | 32166 ft | 458 kts | 276° |
| 2026-04-29 16:14 | 50.17576 | -92.77461 | 32152 ft | 458 kts | 277° |
| 2026-04-29 16:14 | 50.18237 | -92.87337 | 32160 ft | 457 kts | 277° |
| 2026-04-29 16:15 | 50.18881 | -92.97113 | 32151 ft | 448 kts | 276° |
| 2026-04-29 16:15 | 50.19511 | -93.06802 | 32164 ft | 449 kts | 276° |
| 2026-04-29 16:16 | 50.20135 | -93.16521 | 32156 ft | 451 kts | 276° |
| 2026-04-29 16:16 | 50.20750 | -93.26205 | 32151 ft | 452 kts | 276° |
| 2026-04-29 16:17 | 50.21361 | -93.35975 | 32148 ft | 452 kts | 276° |
| 2026-04-29 16:17 | 50.21964 | -93.45747 | 32150 ft | 452 kts | 276° |
| 2026-04-29 16:18 | 50.22557 | -93.55518 | 32142 ft | 451 kts | 276° |
| 2026-04-29 16:18 | 50.23143 | -93.65282 | 32146 ft | 451 kts | 276° |
| 2026-04-29 16:19 | 50.23718 | -93.75021 | 32142 ft | 450 kts | 277° |
| 2026-04-29 16:19 | 50.24283 | -93.84713 | 32144 ft | 449 kts | 276° |
| 2026-04-29 16:20 | 50.24841 | -93.94424 | 32155 ft | 448 kts | 276° |
| 2026-04-29 16:20 | 50.25389 | -94.04106 | 32156 ft | 448 kts | 276° |
| 2026-04-29 16:21 | 50.25930 | -94.13803 | 32161 ft | 447 kts | 276° |
| 2026-04-29 16:21 | 50.26462 | -94.23504 | 32165 ft | 447 kts | 276° |
| 2026-04-29 16:22 | 50.26981 | -94.33113 | 32169 ft | 446 kts | 276° |
| 2026-04-29 16:22 | 50.27496 | -94.42783 | 32164 ft | 446 kts | 276° |
| 2026-04-29 16:23 | 50.28002 | -94.52457 | 32171 ft | 446 kts | 276° |
| 2026-04-29 16:23 | 50.28499 | -94.62114 | 32170 ft | 447 kts | 276° |
| 2026-04-29 16:24 | 50.28993 | -94.71838 | 32175 ft | 447 kts | 276° |
| 2026-04-29 16:24 | 50.29477 | -94.81537 | 32180 ft | 447 kts | 276° |
| 2026-04-29 16:25 | 50.29949 | -94.91162 | 32178 ft | 447 kts | 276° |
| 2026-04-29 16:25 | 50.30415 | -95.00837 | 32189 ft | 447 kts | 276° |
| 2026-04-29 16:26 | 50.30875 | -95.10561 | 32183 ft | 447 kts | 276° |
| 2026-04-29 16:26 | 50.31325 | -95.20243 | 32193 ft | 447 kts | 276° |
| 2026-04-29 16:27 | 50.31768 | -95.29940 | 32192 ft | 447 kts | 276° |
| 2026-04-29 16:27 | 50.32203 | -95.39647 | 32201 ft | 447 kts | 276° |
| 2026-04-29 16:28 | 50.32628 | -95.49334 | 32197 ft | 447 kts | 276° |
| 2026-04-29 16:28 | 50.33047 | -95.59036 | 32203 ft | 447 kts | 276° |
| 2026-04-29 16:29 | 50.33456 | -95.68703 | 32207 ft | 446 kts | 276° |
| 2026-04-29 16:29 | 50.33857 | -95.78381 | 32211 ft | 446 kts | 276° |
| 2026-04-29 16:30 | 50.34251 | -95.88055 | 32208 ft | 445 kts | 276° |
| 2026-04-29 16:30 | 50.34637 | -95.97759 | 32218 ft | 445 kts | 276° |
| 2026-04-29 16:31 | 50.35012 | -96.07419 | 32200 ft | 444 kts | 276° |
| 2026-04-29 16:31 | 50.35379 | -96.17033 | 32229 ft | 444 kts | 276° |
| 2026-04-29 16:32 | 50.35738 | -96.26683 | 32232 ft | 443 kts | 276° |
| 2026-04-29 16:32 | 50.36089 | -96.36315 | 32228 ft | 443 kts | 276° |
| 2026-04-29 16:33 | 50.36602 | -96.50790 | 32235 ft | 443 kts | 276° |
| 2026-04-29 16:33 | 50.36933 | -96.60413 | 32226 ft | 443 kts | 276° |
| 2026-04-29 16:34 | 50.37257 | -96.70055 | 32246 ft | 443 kts | 276° |
| 2026-04-29 16:34 | 50.37571 | -96.79659 | 32249 ft | 443 kts | 276° |
| 2026-04-29 16:35 | 50.37879 | -96.89298 | 32235 ft | 444 kts | 276° |
| 2026-04-29 16:35 | 50.38179 | -96.98972 | 32231 ft | 443 kts | 276° |
| 2026-04-29 16:36 | 50.38421 | -97.06971 | 32239 ft | 443 kts | 275° |
| 2026-04-29 16:36 | 50.38706 | -97.16664 | 32237 ft | 443 kts | 275° |
| 2026-04-29 16:37 | 50.38983 | -97.26292 | 32235 ft | 443 kts | 275° |
| 2026-04-29 16:37 | 50.39208 | -97.34335 | 32238 ft | 443 kts | 275° |
| 2026-04-29 16:38 | 50.39515 | -97.45631 | 32229 ft | 443 kts | 275° |
| 2026-04-29 16:38 | 50.39766 | -97.55240 | 32239 ft | 443 kts | 275° |
| 2026-04-29 16:39 | 50.40010 | -97.64891 | 32246 ft | 443 kts | 275° |
| 2026-04-29 16:39 | 50.40247 | -97.74515 | 32246 ft | 443 kts | 275° |
| 2026-04-29 16:40 | 50.40477 | -97.84173 | 32250 ft | 443 kts | 275° |
| 2026-04-29 16:40 | 50.40698 | -97.93835 | 32246 ft | 443 kts | 276° |
| 2026-04-29 16:41 | 50.40909 | -98.03450 | 32259 ft | 442 kts | 275° |
| 2026-04-29 16:41 | 50.41112 | -98.13013 | 32259 ft | 442 kts | 275° |
| 2026-04-29 16:42 | 50.41310 | -98.22674 | 32265 ft | 442 kts | 275° |
| 2026-04-29 16:42 | 50.41500 | -98.32354 | 32264 ft | 442 kts | 275° |
| 2026-04-29 16:43 | 50.41681 | -98.42016 | 32255 ft | 442 kts | 275° |
| 2026-04-29 16:43 | 50.41853 | -98.51604 | 32260 ft | 442 kts | 275° |
| 2026-04-29 16:44 | 50.42020 | -98.61254 | 32260 ft | 442 kts | 275° |
| 2026-04-29 16:44 | 50.42293 | -98.70862 | 32249 ft | 438 kts | 282° |
| 2026-04-29 16:45 | 50.43939 | -98.79941 | 32267 ft | 431 kts | 294° |
| 2026-04-29 16:45 | 50.46135 | -98.88705 | 32255 ft | 431 kts | 295° |
| 2026-04-29 16:46 | 50.48315 | -98.97486 | 32252 ft | 432 kts | 294° |
| 2026-04-29 16:46 | 50.50465 | -99.06287 | 32254 ft | 432 kts | 294° |
| 2026-04-29 16:47 | 50.52587 | -99.15062 | 32252 ft | 432 kts | 294° |
| 2026-04-29 16:47 | 50.54714 | -99.23903 | 32255 ft | 432 kts | 294° |
| 2026-04-29 16:48 | 50.56840 | -99.32768 | 32231 ft | 433 kts | 294° |
| 2026-04-29 16:48 | 50.58946 | -99.41606 | 32238 ft | 432 kts | 293° |
| 2026-04-29 16:49 | 50.61053 | -99.50465 | 32247 ft | 431 kts | 293° |
| 2026-04-29 16:49 | 50.63145 | -99.59298 | 32245 ft | 430 kts | 293° |
| 2026-04-29 16:50 | 50.65211 | -99.68061 | 32250 ft | 428 kts | 293° |
| 2026-04-29 16:50 | 50.67276 | -99.76854 | 32251 ft | 428 kts | 293° |
| 2026-04-29 16:51 | 50.69336 | -99.85657 | 32227 ft | 427 kts | 292° |
| 2026-04-29 16:51 | 50.71382 | -99.94442 | 32240 ft | 426 kts | 292° |
| 2026-04-29 16:52 | 50.73419 | -100.03218 | 32247 ft | 426 kts | 292° |
| 2026-04-29 16:52 | 50.75450 | -100.12008 | 32247 ft | 426 kts | 292° |
| 2026-04-29 16:53 | 50.77460 | -100.20744 | 32247 ft | 426 kts | 292° |
| 2026-04-29 16:53 | 50.79476 | -100.29542 | 32245 ft | 426 kts | 292° |
| 2026-04-29 16:54 | 50.81493 | -100.38378 | 32229 ft | 426 kts | 292° |
| 2026-04-29 16:54 | 50.83498 | -100.47207 | 32239 ft | 426 kts | 292° |
| 2026-04-29 16:55 | 50.85497 | -100.56039 | 32250 ft | 427 kts | 291° |
| 2026-04-29 16:55 | 50.87494 | -100.64898 | 32247 ft | 427 kts | 291° |
| 2026-04-29 16:56 | 50.89474 | -100.73720 | 32241 ft | 427 kts | 291° |
| 2026-04-29 16:56 | 50.91460 | -100.82608 | 32246 ft | 427 kts | 291° |
| 2026-04-29 16:57 | 50.93437 | -100.91498 | 32227 ft | 427 kts | 291° |
| 2026-04-29 16:57 | 50.95406 | -101.00396 | 32256 ft | 427 kts | 291° |
| 2026-04-29 16:58 | 50.97368 | -101.09283 | 32254 ft | 427 kts | 291° |
| 2026-04-29 16:58 | 50.99326 | -101.18194 | 32238 ft | 428 kts | 291° |
| 2026-04-29 16:59 | 51.01279 | -101.27123 | 32245 ft | 428 kts | 291° |
| 2026-04-29 16:59 | 51.03226 | -101.36064 | 32246 ft | 428 kts | 291° |
| 2026-04-29 17:00 | 51.05152 | -101.44945 | 32247 ft | 427 kts | 291° |
| 2026-04-29 17:00 | 51.07092 | -101.53932 | 32244 ft | 427 kts | 290° |
| 2026-04-29 17:01 | 51.09002 | -101.62818 | 32249 ft | 427 kts | 290° |
| 2026-04-29 17:01 | 51.10924 | -101.71802 | 32244 ft | 427 kts | 290° |
| 2026-04-29 17:02 | 51.12832 | -101.80756 | 32248 ft | 427 kts | 290° |
| 2026-04-29 17:02 | 51.14737 | -101.89731 | 32249 ft | 428 kts | 290° |
| 2026-04-29 17:03 | 51.16634 | -101.98718 | 32231 ft | 427 kts | 290° |
| 2026-04-29 17:03 | 51.18523 | -102.07700 | 32253 ft | 427 kts | 291° |
| 2026-04-29 17:04 | 51.20395 | -102.16645 | 32246 ft | 428 kts | 290° |
| 2026-04-29 17:04 | 51.22269 | -102.25639 | 32195 ft | 428 kts | 290° |
| 2026-04-29 17:05 | 51.24145 | -102.34685 | 32181 ft | 429 kts | 290° |
| 2026-04-29 17:05 | 51.26014 | -102.43733 | 32188 ft | 429 kts | 290° |
| 2026-04-29 17:06 | 51.27973 | -102.52727 | 32175 ft | 428 kts | 293° |
| 2026-04-29 17:06 | 51.30095 | -102.61551 | 32183 ft | 428 kts | 293° |
| 2026-04-29 17:07 | 51.32229 | -102.70422 | 32200 ft | 428 kts | 293° |
| 2026-04-29 17:07 | 51.34338 | -102.79338 | 32239 ft | 428 kts | 293° |
| 2026-04-29 17:08 | 51.36430 | -102.88282 | 32238 ft | 429 kts | 292° |
| 2026-04-29 17:08 | 51.38511 | -102.97241 | 32239 ft | 430 kts | 292° |
| 2026-04-29 17:09 | 51.40587 | -103.06207 | 32223 ft | 429 kts | 293° |
| 2026-04-29 17:09 | 51.42653 | -103.15166 | 32236 ft | 429 kts | 293° |
| 2026-04-29 17:10 | 51.44714 | -103.24137 | 32245 ft | 428 kts | 293° |
| 2026-04-29 17:10 | 51.46751 | -103.33048 | 32240 ft | 428 kts | 292° |
| 2026-04-29 17:11 | 51.48793 | -103.42017 | 32243 ft | 427 kts | 292° |
| 2026-04-29 17:11 | 51.50828 | -103.50991 | 32254 ft | 427 kts | 292° |
| 2026-04-29 17:12 | 51.52855 | -103.59970 | 32227 ft | 428 kts | 293° |
| 2026-04-29 17:12 | 51.54535 | -103.67441 | 32235 ft | 427 kts | 293° |
| 2026-04-29 17:13 | 51.56872 | -103.77888 | 32254 ft | 427 kts | 293° |
| 2026-04-29 17:13 | 51.58876 | -103.86877 | 32250 ft | 427 kts | 293° |
| 2026-04-29 17:14 | 51.60871 | -103.95871 | 32253 ft | 427 kts | 292° |
| 2026-04-29 17:14 | 51.62861 | -104.04880 | 32262 ft | 427 kts | 292° |
| 2026-04-29 17:15 | 51.64835 | -104.13849 | 32262 ft | 427 kts | 292° |
| 2026-04-29 17:15 | 51.66810 | -104.22863 | 32266 ft | 427 kts | 292° |
| 2026-04-29 17:16 | 51.68776 | -104.31880 | 32266 ft | 427 kts | 292° |
| 2026-04-29 17:16 | 51.70741 | -104.40929 | 32261 ft | 427 kts | 292° |
| 2026-04-29 17:17 | 51.72697 | -104.49977 | 32261 ft | 427 kts | 292° |
| 2026-04-29 17:17 | 51.74643 | -104.59023 | 32259 ft | 426 kts | 292° |
| 2026-04-29 17:18 | 51.76577 | -104.68049 | 32262 ft | 426 kts | 292° |
| 2026-04-29 17:18 | 51.78507 | -104.77096 | 32263 ft | 425 kts | 292° |
| 2026-04-29 17:19 | 51.80413 | -104.86069 | 32267 ft | 425 kts | 292° |
| 2026-04-29 17:19 | 51.82325 | -104.95114 | 32265 ft | 425 kts | 292° |
| 2026-04-29 17:20 | 51.84230 | -105.04158 | 32269 ft | 425 kts | 292° |
| 2026-04-29 17:20 | 51.86127 | -105.13209 | 32260 ft | 425 kts | 292° |
| 2026-04-29 17:21 | 51.88020 | -105.22279 | 32268 ft | 425 kts | 292° |
| 2026-04-29 17:21 | 51.89906 | -105.31357 | 32250 ft | 424 kts | 292° |
| 2026-04-29 17:22 | 51.91780 | -105.40418 | 32261 ft | 425 kts | 292° |
| 2026-04-29 17:22 | 51.93652 | -105.49506 | 32267 ft | 425 kts | 292° |
| 2026-04-29 17:23 | 51.95509 | -105.58553 | 32264 ft | 425 kts | 292° |
| 2026-04-29 17:23 | 51.97372 | -105.67673 | 32275 ft | 426 kts | 292° |
| 2026-04-29 17:24 | 51.99227 | -105.76786 | 32273 ft | 426 kts | 292° |
| 2026-04-29 17:24 | 52.01077 | -105.85922 | 32242 ft | 425 kts | 292° |
| 2026-04-29 17:25 | 52.02920 | -105.95057 | 32260 ft | 425 kts | 292° |
| 2026-04-29 17:25 | 52.04752 | -106.04180 | 32272 ft | 425 kts | 292° |
| 2026-04-29 17:26 | 52.06566 | -106.13257 | 32271 ft | 425 kts | 292° |
| 2026-04-29 17:26 | 52.08091 | -106.20920 | 32249 ft | 425 kts | 292° |
| 2026-04-29 17:27 | 52.09895 | -106.30029 | 32240 ft | 425 kts | 291° |
| 2026-04-29 17:27 | 52.11703 | -106.39203 | 32228 ft | 426 kts | 291° |
| 2026-04-29 17:28 | 52.13503 | -106.48375 | 32204 ft | 425 kts | 291° |
| 2026-04-29 17:28 | 52.15295 | -106.57548 | 32193 ft | 425 kts | 291° |
| 2026-04-29 17:29 | 52.17084 | -106.66743 | 32191 ft | 426 kts | 291° |
| 2026-04-29 17:29 | 52.18833 | -106.75953 | 32196 ft | 427 kts | 290° |
| 2026-04-29 17:30 | 52.20450 | -106.85280 | 32195 ft | 427 kts | 289° |
| 2026-04-29 17:30 | 52.22039 | -106.94634 | 32267 ft | 430 kts | 289° |
| 2026-04-29 17:31 | 52.23647 | -107.04067 | 32230 ft | 435 kts | 289° |
| 2026-04-29 17:31 | 52.25271 | -107.13608 | 32246 ft | 437 kts | 289° |
| 2026-04-29 17:32 | 52.26896 | -107.23174 | 32252 ft | 438 kts | 289° |
| 2026-04-29 17:32 | 52.28518 | -107.32780 | 32254 ft | 438 kts | 289° |
| 2026-04-29 17:33 | 52.30129 | -107.42375 | 32253 ft | 438 kts | 289° |
| 2026-04-29 17:33 | 52.31730 | -107.51961 | 32255 ft | 437 kts | 289° |
| 2026-04-29 17:34 | 52.33310 | -107.61478 | 32231 ft | 436 kts | 289° |
| 2026-04-29 17:34 | 52.34889 | -107.71035 | 32251 ft | 435 kts | 289° |
| 2026-04-29 17:35 | 52.37236 | -107.85339 | 32262 ft | 434 kts | 289° |
| 2026-04-29 17:36 | 52.38791 | -107.94887 | 32265 ft | 434 kts | 289° |
| 2026-04-29 17:36 | 52.40338 | -108.04436 | 32267 ft | 434 kts | 289° |
| 2026-04-29 17:37 | 52.41875 | -108.13977 | 32269 ft | 434 kts | 289° |
| 2026-04-29 17:37 | 52.43405 | -108.23537 | 32279 ft | 433 kts | 289° |
| 2026-04-29 17:38 | 52.44918 | -108.33043 | 32280 ft | 434 kts | 289° |
| 2026-04-29 17:38 | 52.46438 | -108.42642 | 32274 ft | 435 kts | 289° |
| 2026-04-29 17:39 | 52.47956 | -108.52283 | 32261 ft | 436 kts | 289° |
| 2026-04-29 17:39 | 52.49466 | -108.61932 | 32259 ft | 437 kts | 289° |
| 2026-04-29 17:40 | 52.50970 | -108.71602 | 32271 ft | 437 kts | 289° |
| 2026-04-29 17:40 | 52.52475 | -108.81327 | 32288 ft | 442 kts | 289° |
| 2026-04-29 17:40 | 52.53228 | -108.86220 | 32618 ft | 441 kts | 289° |
| 2026-04-29 17:41 | 52.53972 | -108.91080 | 33075 ft | 437 kts | 289° |
| 2026-04-29 17:41 | 52.54707 | -108.95902 | 33439 ft | 435 kts | 289° |
| 2026-04-29 17:41 | 52.55442 | -109.00722 | 33706 ft | 435 kts | 289° |
| 2026-04-29 17:41 | 52.56181 | -109.05572 | 33945 ft | 436 kts | 289° |
| 2026-04-29 17:42 | 52.56914 | -109.10406 | 34242 ft | 436 kts | 289° |
| 2026-04-29 17:42 | 52.57635 | -109.15177 | 34498 ft | 435 kts | 289° |
| 2026-04-29 17:42 | 52.58364 | -109.20014 | 34681 ft | 436 kts | 289° |
| 2026-04-29 17:42 | 52.59093 | -109.24858 | 34862 ft | 437 kts | 289° |
| 2026-04-29 17:43 | 52.59822 | -109.29722 | 35075 ft | 436 kts | 289° |
| 2026-04-29 17:43 | 52.60544 | -109.34558 | 35289 ft | 436 kts | 288° |
| 2026-04-29 17:43 | 52.61264 | -109.39404 | 35441 ft | 437 kts | 288° |
| 2026-04-29 17:43 | 52.61989 | -109.44283 | 35594 ft | 439 kts | 288° |
| 2026-04-29 17:44 | 52.62711 | -109.49164 | 35810 ft | 438 kts | 288° |
| 2026-04-29 17:44 | 52.63430 | -109.54038 | 36012 ft | 438 kts | 288° |
| 2026-04-29 17:44 | 52.64146 | -109.58905 | 36207 ft | 438 kts | 288° |
| 2026-04-29 17:45 | 52.65574 | -109.68658 | 36242 ft | 442 kts | 288° |
| 2026-04-29 17:45 | 52.67000 | -109.78466 | 36245 ft | 439 kts | 288° |
| 2026-04-29 17:46 | 52.68411 | -109.88237 | 36250 ft | 437 kts | 288° |
| 2026-04-29 17:46 | 52.69811 | -109.97973 | 36248 ft | 435 kts | 288° |
| 2026-04-29 17:47 | 52.71197 | -110.07678 | 36256 ft | 434 kts | 288° |
| 2026-04-29 17:47 | 52.72573 | -110.17376 | 36256 ft | 434 kts | 288° |
| 2026-04-29 17:48 | 52.73933 | -110.27010 | 36256 ft | 434 kts | 288° |
| 2026-04-29 17:48 | 52.75296 | -110.36733 | 36252 ft | 435 kts | 288° |
| 2026-04-29 17:49 | 52.76656 | -110.46493 | 36255 ft | 437 kts | 287° |
| 2026-04-29 17:49 | 52.78012 | -110.56290 | 36243 ft | 438 kts | 287° |
| 2026-04-29 17:50 | 52.79367 | -110.66139 | 36256 ft | 440 kts | 287° |
| 2026-04-29 17:50 | 52.80715 | -110.76013 | 36273 ft | 441 kts | 287° |
| 2026-04-29 17:51 | 52.82062 | -110.85948 | 36280 ft | 443 kts | 287° |
| 2026-04-29 17:51 | 52.83395 | -110.95842 | 36269 ft | 444 kts | 287° |
| 2026-04-29 17:52 | 52.84727 | -111.05801 | 36282 ft | 444 kts | 287° |
| 2026-04-29 17:52 | 52.86054 | -111.15788 | 36248 ft | 443 kts | 287° |
| 2026-04-29 17:53 | 52.87368 | -111.25741 | 36265 ft | 443 kts | 287° |
| 2026-04-29 17:53 | 52.88674 | -111.35715 | 36274 ft | 443 kts | 287° |
| 2026-04-29 17:54 | 52.89972 | -111.45687 | 36271 ft | 442 kts | 287° |
| 2026-04-29 17:54 | 52.91257 | -111.55637 | 36267 ft | 442 kts | 287° |
| 2026-04-29 17:55 | 52.92530 | -111.65560 | 36271 ft | 442 kts | 287° |
| 2026-04-29 17:55 | 52.93801 | -111.75528 | 36272 ft | 442 kts | 286° |
| 2026-04-29 17:56 | 52.95064 | -111.85516 | 36265 ft | 441 kts | 286° |
| 2026-04-29 17:56 | 52.96318 | -111.95496 | 36263 ft | 441 kts | 286° |
| 2026-04-29 17:57 | 52.97554 | -112.05407 | 36261 ft | 441 kts | 286° |
| 2026-04-29 17:57 | 52.98793 | -112.15397 | 36256 ft | 442 kts | 286° |
| 2026-04-29 17:58 | 53.00018 | -112.25381 | 36257 ft | 442 kts | 286° |
| 2026-04-29 17:58 | 53.01239 | -112.35399 | 36262 ft | 442 kts | 286° |
| 2026-04-29 17:59 | 53.02448 | -112.45375 | 36251 ft | 442 kts | 285° |
| 2026-04-29 17:59 | 53.03660 | -112.55461 | 36259 ft | 442 kts | 285° |
| 2026-04-29 18:00 | 53.04844 | -112.65397 | 36262 ft | 442 kts | 285° |
| 2026-04-29 18:00 | 53.06032 | -112.75432 | 36274 ft | 442 kts | 285° |
| 2026-04-29 18:01 | 53.07213 | -112.85483 | 36267 ft | 443 kts | 285° |
| 2026-04-29 18:01 | 53.08386 | -112.95543 | 36268 ft | 443 kts | 285° |
| 2026-04-29 18:02 | 53.09549 | -113.05597 | 36263 ft | 442 kts | 285° |
| 2026-04-29 18:02 | 53.10705 | -113.15673 | 36264 ft | 443 kts | 285° |
| 2026-04-29 18:03 | 53.11845 | -113.25676 | 36270 ft | 443 kts | 285° |
| 2026-04-29 18:03 | 53.12984 | -113.35755 | 36266 ft | 443 kts | 285° |
| 2026-04-29 18:04 | 53.14113 | -113.45833 | 36233 ft | 443 kts | 284° |
| 2026-04-29 18:04 | 53.15234 | -113.55921 | 36233 ft | 443 kts | 284° |
| 2026-04-29 18:05 | 53.16347 | -113.66021 | 36226 ft | 442 kts | 284° |
| 2026-04-29 18:05 | 53.17452 | -113.76109 | 36227 ft | 442 kts | 284° |
| 2026-04-29 18:06 | 53.18540 | -113.86134 | 36227 ft | 442 kts | 284° |
| 2026-04-29 18:06 | 53.19645 | -113.96218 | 36227 ft | 442 kts | 284° |
| 2026-04-29 18:07 | 53.20755 | -114.06287 | 36244 ft | 442 kts | 284° |
| 2026-04-29 18:07 | 53.21856 | -114.16373 | 36240 ft | 442 kts | 284° |
| 2026-04-29 18:08 | 53.22948 | -114.26472 | 36230 ft | 442 kts | 284° |
| 2026-04-29 18:08 | 53.24029 | -114.36568 | 36235 ft | 442 kts | 284° |
| 2026-04-29 18:09 | 53.25101 | -114.46666 | 36235 ft | 441 kts | 283° |
| 2026-04-29 18:09 | 53.26166 | -114.56763 | 36235 ft | 441 kts | 283° |
| 2026-04-29 18:10 | 53.27565 | -114.66673 | 36243 ft | 435 kts | 295° |
| 2026-04-29 18:10 | 53.30474 | -114.75349 | 36237 ft | 428 kts | 310° |
| 2026-04-29 18:11 | 53.34188 | -114.83122 | 36241 ft | 427 kts | 311° |
| 2026-04-29 18:11 | 53.37915 | -114.90862 | 36240 ft | 427 kts | 311° |
| 2026-04-29 18:12 | 53.41620 | -114.98649 | 36227 ft | 427 kts | 310° |
| 2026-04-29 18:12 | 53.45306 | -115.06471 | 36239 ft | 427 kts | 310° |
| 2026-04-29 18:13 | 53.48983 | -115.14316 | 36247 ft | 427 kts | 310° |
| 2026-04-29 18:13 | 53.52625 | -115.22113 | 36247 ft | 428 kts | 310° |
| 2026-04-29 18:14 | 53.56294 | -115.29995 | 36247 ft | 428 kts | 310° |
| 2026-04-29 18:14 | 53.59965 | -115.37899 | 36249 ft | 428 kts | 310° |
| 2026-04-29 18:15 | 53.63630 | -115.45818 | 36250 ft | 428 kts | 310° |
| 2026-04-29 18:15 | 53.67287 | -115.53747 | 36251 ft | 428 kts | 310° |
| 2026-04-29 18:16 | 53.70332 | -115.60366 | 36258 ft | 428 kts | 310° |
| 2026-04-29 18:16 | 53.74574 | -115.69616 | 36258 ft | 428 kts | 310° |
| 2026-04-29 18:17 | 53.77612 | -115.76261 | 36259 ft | 428 kts | 309° |
| 2026-04-29 18:17 | 53.81207 | -115.84155 | 36229 ft | 411 kts | 309° |
| 2026-04-29 18:17 | 53.82913 | -115.87900 | 35856 ft | 405 kts | 310° |
| 2026-04-29 18:18 | 53.84672 | -115.91710 | 35322 ft | 406 kts | 310° |
| 2026-04-29 18:18 | 53.88396 | -115.98953 | 35972 ft | 394 kts | 314° |
| 2026-04-29 18:18 | 53.90202 | -116.02264 | 36663 ft | 385 kts | 314° |
| 2026-04-29 18:19 | 53.91963 | -116.05711 | 36342 ft | 388 kts | 311° |
| 2026-04-29 18:19 | 53.93717 | -116.09385 | 35054 ft | 406 kts | 310° |
| 2026-04-29 18:19 | 53.95469 | -116.13296 | 34135 ft | 424 kts | 304° |
| 2026-04-29 18:20 | 53.98715 | -116.21288 | 34798 ft | 394 kts | 308° |
| 2026-04-29 18:20 | 54.00420 | -116.24853 | 35306 ft | 386 kts | 314° |
| 2026-04-29 18:20 | 54.02320 | -116.28141 | 35335 ft | 392 kts | 318° |
| 2026-04-29 18:20 | 54.04350 | -116.31304 | 35215 ft | 403 kts | 318° |
| 2026-04-29 18:21 | 54.06400 | -116.34628 | 35145 ft | 411 kts | 317° |
| 2026-04-29 18:21 | 54.08464 | -116.38059 | 35312 ft | 413 kts | 316° |
| 2026-04-29 18:21 | 54.10496 | -116.41462 | 35708 ft | 409 kts | 316° |
| 2026-04-29 18:21 | 54.12508 | -116.44866 | 36130 ft | 405 kts | 316° |
| 2026-04-29 18:22 | 54.14493 | -116.48268 | 36309 ft | 407 kts | 316° |
| 2026-04-29 18:22 | 54.18408 | -116.55530 | 36151 ft | 424 kts | 310° |
| 2026-04-29 18:23 | 54.19602 | -116.58148 | 36169 ft | 427 kts | 308° |
| 2026-04-29 18:23 | 54.22134 | -116.64118 | 36561 ft | 425 kts | 308° |
| 2026-04-29 18:23 | 54.23800 | -116.67817 | 37042 ft | 413 kts | 309° |
| 2026-04-29 18:24 | 54.25318 | -116.71583 | 38709 ft | 360 kts | 302° |
| 2026-04-29 18:24 | 54.26615 | -116.74884 | 39609 ft | 324 kts | 306° |
| 2026-04-29 18:24 | 54.27578 | -116.78488 | 39003 ft | 341 kts | 287° |
| 2026-04-29 18:24 | 54.28179 | -116.82494 | 37971 ft | 366 kts | 288° |
| 2026-04-29 18:25 | 54.29088 | -116.86758 | 36556 ft | 400 kts | 300° |
| 2026-04-29 18:25 | 54.30670 | -116.90775 | 36212 ft | 406 kts | 311° |
| 2026-04-29 18:25 | 54.32641 | -116.94259 | 36211 ft | 410 kts | 318° |
| 2026-04-29 18:26 | 54.37034 | -117.00726 | 36276 ft | 423 kts | 320° |
| 2026-04-29 18:26 | 54.41610 | -117.07317 | 36272 ft | 436 kts | 320° |
| 2026-04-29 18:27 | 54.46269 | -117.14135 | 36263 ft | 444 kts | 320° |
| 2026-04-29 18:27 | 54.50963 | -117.21100 | 36241 ft | 444 kts | 319° |
| 2026-04-29 18:28 | 54.55666 | -117.28126 | 36251 ft | 449 kts | 319° |
| 2026-04-29 18:28 | 54.58000 | -117.31623 | 36227 ft | 437 kts | 319° |
| 2026-04-29 18:28 | 54.60248 | -117.34993 | 36234 ft | 422 kts | 319° |
| 2026-04-29 18:29 | 54.64608 | -117.41546 | 36248 ft | 419 kts | 319° |
| 2026-04-29 18:29 | 54.69058 | -117.48254 | 36250 ft | 425 kts | 319° |
| 2026-04-29 18:30 | 54.73503 | -117.54973 | 36244 ft | 428 kts | 319° |
| 2026-04-29 18:30 | 54.77994 | -117.61783 | 36246 ft | 429 kts | 319° |
| 2026-04-29 18:31 | 54.82484 | -117.68610 | 36245 ft | 429 kts | 319° |
| 2026-04-29 18:31 | 54.86969 | -117.75453 | 36244 ft | 428 kts | 319° |
| 2026-04-29 18:32 | 54.91437 | -117.82290 | 36235 ft | 427 kts | 319° |
| 2026-04-29 18:32 | 54.98083 | -117.92499 | 36240 ft | 426 kts | 319° |
| 2026-04-29 18:33 | 55.02505 | -117.99320 | 36238 ft | 424 kts | 318° |
| 2026-04-29 18:33 | 55.06926 | -118.06159 | 36238 ft | 424 kts | 318° |
| 2026-04-29 18:34 | 55.10582 | -118.11834 | 36239 ft | 423 kts | 318° |
| 2026-04-29 18:34 | 55.15711 | -118.19814 | 36238 ft | 422 kts | 318° |
| 2026-04-29 18:35 | 55.20085 | -118.26643 | 36236 ft | 422 kts | 319° |
| 2026-04-29 18:35 | 55.24425 | -118.33437 | 36225 ft | 421 kts | 318° |
| 2026-04-29 18:36 | 55.28785 | -118.40285 | 36221 ft | 420 kts | 318° |
| 2026-04-29 18:36 | 55.33128 | -118.47129 | 36217 ft | 419 kts | 318° |
| 2026-04-29 18:37 | 55.37464 | -118.53985 | 36215 ft | 419 kts | 318° |
| 2026-04-29 18:37 | 55.41792 | -118.60843 | 36221 ft | 419 kts | 318° |
| 2026-04-29 18:38 | 55.46130 | -118.67738 | 36231 ft | 420 kts | 318° |
| 2026-04-29 18:38 | 55.50475 | -118.74672 | 36227 ft | 421 kts | 318° |
| 2026-04-29 18:39 | 55.54794 | -118.81585 | 36219 ft | 423 kts | 318° |
| 2026-04-29 18:39 | 55.59152 | -118.88579 | 36226 ft | 423 kts | 318° |
| 2026-04-29 18:40 | 55.63507 | -118.95593 | 36218 ft | 423 kts | 318° |
| 2026-04-29 18:40 | 55.67854 | -119.02616 | 36213 ft | 423 kts | 318° |
| 2026-04-29 18:41 | 55.76518 | -119.16673 | 36210 ft | 421 kts | 318° |
| 2026-04-29 18:42 | 55.80801 | -119.23654 | 36210 ft | 419 kts | 318° |
| 2026-04-29 18:42 | 55.85087 | -119.30666 | 36206 ft | 418 kts | 318° |
| 2026-04-29 18:43 | 55.89357 | -119.37675 | 36212 ft | 416 kts | 318° |
| 2026-04-29 18:43 | 55.93606 | -119.44669 | 36205 ft | 415 kts | 318° |
| 2026-04-29 18:44 | 55.97841 | -119.51663 | 36212 ft | 415 kts | 318° |
| 2026-04-29 18:44 | 56.02070 | -119.58665 | 36220 ft | 414 kts | 318° |
| 2026-04-29 18:45 | 56.06267 | -119.65636 | 36210 ft | 413 kts | 318° |
| 2026-04-29 18:45 | 56.10465 | -119.72632 | 36200 ft | 412 kts | 318° |
| 2026-04-29 18:46 | 56.14650 | -119.79631 | 36222 ft | 411 kts | 318° |
| 2026-04-29 18:46 | 56.18825 | -119.86631 | 36210 ft | 410 kts | 318° |
| 2026-04-29 18:47 | 56.22989 | -119.93635 | 36225 ft | 409 kts | 318° |
| 2026-04-29 18:47 | 56.27127 | -120.00619 | 36213 ft | 408 kts | 318° |
| 2026-04-29 18:48 | 56.31254 | -120.07604 | 36216 ft | 406 kts | 317° |
| 2026-04-29 18:48 | 56.35365 | -120.14586 | 36208 ft | 405 kts | 317° |
| 2026-04-29 18:49 | 56.39432 | -120.21548 | 36207 ft | 405 kts | 315° |
| 2026-04-29 18:49 | 56.41046 | -120.25714 | 36217 ft | 408 kts | 298° |
| 2026-04-29 18:49 | 56.42010 | -120.30554 | 36204 ft | 414 kts | 287° |
| 2026-04-29 18:50 | 56.42334 | -120.35743 | 36205 ft | 422 kts | 273° |
| 2026-04-29 18:50 | 56.42133 | -120.41045 | 36222 ft | 424 kts | 270° |
| 2026-04-29 18:50 | 56.41521 | -120.51666 | 36211 ft | 426 kts | 269° |
| 2026-04-29 18:51 | 56.40883 | -120.62320 | 36217 ft | 426 kts | 269° |
| 2026-04-29 18:51 | 56.40278 | -120.72947 | 36229 ft | 426 kts | 269° |
| 2026-04-29 18:52 | 56.39685 | -120.83622 | 36213 ft | 426 kts | 269° |
| 2026-04-29 18:52 | 56.39091 | -120.94276 | 36221 ft | 427 kts | 269° |
| 2026-04-29 18:53 | 56.38487 | -121.04963 | 36232 ft | 428 kts | 269° |
| 2026-04-29 18:53 | 56.37875 | -121.15597 | 36222 ft | 429 kts | 269° |
| 2026-04-29 18:54 | 56.37248 | -121.26321 | 36224 ft | 429 kts | 269° |
| 2026-04-29 18:54 | 56.36611 | -121.37040 | 36221 ft | 430 kts | 269° |
| 2026-04-29 18:55 | 56.35965 | -121.47763 | 36214 ft | 430 kts | 269° |
| 2026-04-29 18:55 | 56.35309 | -121.58483 | 36213 ft | 430 kts | 269° |
| 2026-04-29 18:56 | 56.34645 | -121.69206 | 36228 ft | 430 kts | 269° |
| 2026-04-29 18:56 | 56.33971 | -121.79911 | 36215 ft | 429 kts | 269° |
| 2026-04-29 18:57 | 56.33292 | -121.90558 | 36202 ft | 428 kts | 269° |
| 2026-04-29 18:57 | 56.32610 | -122.01128 | 36203 ft | 427 kts | 269° |
| 2026-04-29 18:58 | 56.31916 | -122.11722 | 36194 ft | 425 kts | 268° |
| 2026-04-29 18:58 | 56.31213 | -122.22293 | 36195 ft | 424 kts | 268° |
| 2026-04-29 18:59 | 56.30504 | -122.32825 | 36198 ft | 423 kts | 268° |
| 2026-04-29 18:59 | 56.29787 | -122.43353 | 36200 ft | 423 kts | 268° |
| 2026-04-29 19:00 | 56.29059 | -122.53899 | 36188 ft | 423 kts | 268° |
| 2026-04-29 19:00 | 56.28326 | -122.64408 | 36201 ft | 423 kts | 268° |
| 2026-04-29 19:01 | 56.27588 | -122.74837 | 36185 ft | 423 kts | 268° |
| 2026-04-29 19:01 | 56.26836 | -122.85321 | 36188 ft | 422 kts | 268° |
| 2026-04-29 19:02 | 56.26208 | -122.94027 | 36197 ft | 423 kts | 268° |
| 2026-04-29 19:02 | 56.25310 | -123.06285 | 36200 ft | 423 kts | 267° |
| 2026-04-29 19:03 | 56.24528 | -123.16771 | 36199 ft | 423 kts | 267° |
| 2026-04-29 19:03 | 56.23741 | -123.27275 | 36185 ft | 424 kts | 267° |
| 2026-04-29 19:04 | 56.22945 | -123.37752 | 36185 ft | 423 kts | 267° |
| 2026-04-29 19:04 | 56.22141 | -123.48206 | 36209 ft | 422 kts | 266° |
| 2026-04-29 19:05 | 56.21467 | -123.56878 | 36190 ft | 421 kts | 266° |
| 2026-04-29 19:05 | 56.20518 | -123.68943 | 36217 ft | 419 kts | 266° |
| 2026-04-29 19:06 | 56.19694 | -123.79320 | 36208 ft | 420 kts | 266° |
| 2026-04-29 19:07 | 56.18576 | -123.93191 | 36190 ft | 419 kts | 266° |
| 2026-04-29 19:07 | 56.17735 | -124.03516 | 36207 ft | 418 kts | 266° |
| 2026-04-29 19:08 | 56.16890 | -124.13781 | 36197 ft | 418 kts | 266° |
| 2026-04-29 19:08 | 56.16029 | -124.24140 | 36219 ft | 423 kts | 266° |
| 2026-04-29 19:09 | 56.15143 | -124.34694 | 36210 ft | 431 kts | 266° |
| 2026-04-29 19:09 | 56.14237 | -124.45339 | 36218 ft | 432 kts | 265° |
| 2026-04-29 19:10 | 56.13321 | -124.55968 | 36195 ft | 427 kts | 265° |
| 2026-04-29 19:10 | 56.12411 | -124.66414 | 36207 ft | 422 kts | 265° |
| 2026-04-29 19:11 | 56.11500 | -124.76805 | 36204 ft | 421 kts | 265° |
| 2026-04-29 19:11 | 56.10583 | -124.87168 | 36219 ft | 421 kts | 265° |
| 2026-04-29 19:12 | 56.09657 | -124.97536 | 36212 ft | 421 kts | 265° |
| 2026-04-29 19:12 | 56.08721 | -125.07893 | 36204 ft | 422 kts | 265° |
| 2026-04-29 19:13 | 56.07782 | -125.18186 | 36215 ft | 421 kts | 264° |
| 2026-04-29 19:13 | 56.06828 | -125.28552 | 36216 ft | 421 kts | 264° |
| 2026-04-29 19:14 | 56.05865 | -125.38906 | 36236 ft | 422 kts | 264° |
| 2026-04-29 19:14 | 56.04895 | -125.49241 | 36238 ft | 421 kts | 264° |
| 2026-04-29 19:15 | 56.03914 | -125.59592 | 36250 ft | 421 kts | 264° |
| 2026-04-29 19:15 | 56.02926 | -125.69931 | 36243 ft | 422 kts | 264° |
| 2026-04-29 19:16 | 56.01924 | -125.80277 | 36262 ft | 423 kts | 263° |
| 2026-04-29 19:16 | 56.00923 | -125.90641 | 36247 ft | 423 kts | 263° |
| 2026-04-29 19:17 | 56.00415 | -126.00968 | 36253 ft | 418 kts | 275° |
| 2026-04-29 19:17 | 56.01367 | -126.11151 | 36256 ft | 415 kts | 284° |
| 2026-04-29 19:18 | 56.02685 | -126.21205 | 36245 ft | 415 kts | 284° |
| 2026-04-29 19:18 | 56.03979 | -126.31265 | 36243 ft | 415 kts | 284° |
| 2026-04-29 19:19 | 56.05253 | -126.41348 | 36241 ft | 414 kts | 284° |
| 2026-04-29 19:19 | 56.06509 | -126.51403 | 36242 ft | 414 kts | 283° |
| 2026-04-29 19:20 | 56.07758 | -126.61473 | 36253 ft | 414 kts | 284° |
| 2026-04-29 19:20 | 56.09002 | -126.71570 | 36260 ft | 415 kts | 283° |
| 2026-04-29 19:21 | 56.10228 | -126.81605 | 36250 ft | 415 kts | 283° |
| 2026-04-29 19:21 | 56.11458 | -126.91711 | 36262 ft | 415 kts | 284° |
| 2026-04-29 19:22 | 56.12678 | -127.01817 | 36258 ft | 414 kts | 283° |
| 2026-04-29 19:22 | 56.13882 | -127.11911 | 36263 ft | 414 kts | 283° |
| 2026-04-29 19:23 | 56.15080 | -127.22019 | 36274 ft | 414 kts | 283° |
| 2026-04-29 19:23 | 56.16269 | -127.32143 | 36279 ft | 415 kts | 283° |
| 2026-04-29 19:24 | 56.17455 | -127.42250 | 36267 ft | 413 kts | 282° |
| 2026-04-29 19:24 | 56.18621 | -127.52293 | 36263 ft | 413 kts | 282° |
| 2026-04-29 19:25 | 56.19780 | -127.62385 | 36277 ft | 412 kts | 282° |
| 2026-04-29 19:25 | 56.20932 | -127.72462 | 36274 ft | 412 kts | 282° |
| 2026-04-29 19:26 | 56.22078 | -127.82560 | 36290 ft | 412 kts | 282° |
| 2026-04-29 19:26 | 56.23213 | -127.92644 | 36279 ft | 412 kts | 282° |
| 2026-04-29 19:27 | 56.24342 | -128.02757 | 36288 ft | 412 kts | 281° |
| 2026-04-29 19:27 | 56.25461 | -128.12870 | 36289 ft | 412 kts | 281° |
| 2026-04-29 19:28 | 56.26564 | -128.22914 | 36278 ft | 411 kts | 281° |
| 2026-04-29 19:28 | 56.27660 | -128.32997 | 36283 ft | 410 kts | 281° |
| 2026-04-29 19:29 | 56.28749 | -128.43061 | 36286 ft | 410 kts | 281° |
| 2026-04-29 19:29 | 56.29834 | -128.53172 | 36291 ft | 411 kts | 281° |
| 2026-04-29 19:30 | 56.30909 | -128.63277 | 36304 ft | 411 kts | 280° |
| 2026-04-29 19:30 | 56.31973 | -128.73352 | 36301 ft | 412 kts | 280° |
| 2026-04-29 19:31 | 56.33032 | -128.83468 | 36307 ft | 410 kts | 280° |
| 2026-04-29 19:31 | 56.34081 | -128.93577 | 36302 ft | 410 kts | 280° |
| 2026-04-29 19:32 | 56.35122 | -129.03689 | 36301 ft | 410 kts | 279° |
| 2026-04-29 19:32 | 56.36155 | -129.13820 | 36310 ft | 410 kts | 279° |
| 2026-04-29 19:33 | 56.37180 | -129.23952 | 36296 ft | 411 kts | 279° |
| 2026-04-29 19:33 | 56.38198 | -129.34109 | 36311 ft | 411 kts | 279° |
| 2026-04-29 19:34 | 56.39206 | -129.44257 | 36340 ft | 412 kts | 278° |
| 2026-04-29 19:34 | 56.40203 | -129.54375 | 36321 ft | 412 kts | 278° |
| 2026-04-29 19:35 | 56.41199 | -129.64585 | 36333 ft | 412 kts | 278° |
| 2026-04-29 19:35 | 56.42188 | -129.74792 | 36332 ft | 412 kts | 278° |
| 2026-04-29 19:35 | 56.42680 | -129.79906 | 35762 ft | 414 kts | 278° |
| 2026-04-29 19:36 | 56.43169 | -129.84992 | 35186 ft | 408 kts | 278° |
| 2026-04-29 19:36 | 56.43650 | -129.90034 | 34640 ft | 405 kts | 278° |
| 2026-04-29 19:36 | 56.44120 | -129.94996 | 34193 ft | 400 kts | 278° |
| 2026-04-29 19:36 | 56.44586 | -129.99933 | 33657 ft | 396 kts | 278° |
| 2026-04-29 19:37 | 56.45044 | -130.04809 | 33241 ft | 391 kts | 277° |
| 2026-04-29 19:37 | 56.45344 | -130.08017 | 32924 ft | 388 kts | 277° |
| 2026-04-29 19:37 | 56.45934 | -130.14333 | 32347 ft | 382 kts | 277° |
| 2026-04-29 19:37 | 56.46370 | -130.19037 | 31920 ft | 378 kts | 277° |
| 2026-04-29 19:38 | 56.46801 | -130.23695 | 31492 ft | 375 kts | 277° |
| 2026-04-29 19:38 | 56.47228 | -130.28344 | 31064 ft | 372 kts | 277° |
| 2026-04-29 19:38 | 56.47649 | -130.32936 | 30656 ft | 368 kts | 277° |
| 2026-04-29 19:38 | 56.48066 | -130.37503 | 30204 ft | 368 kts | 277° |
| 2026-04-29 19:39 | 56.48483 | -130.42115 | 29759 ft | 380 kts | 276° |
| 2026-04-29 19:39 | 56.48913 | -130.46907 | 29274 ft | 387 kts | 277° |
| 2026-04-29 19:39 | 56.49344 | -130.51694 | 28820 ft | 381 kts | 276° |
| 2026-04-29 19:39 | 56.49766 | -130.56398 | 28386 ft | 376 kts | 276° |
| 2026-04-29 19:40 | 56.50181 | -130.61018 | 27945 ft | 371 kts | 276° |
| 2026-04-29 19:40 | 56.50592 | -130.65621 | 27480 ft | 367 kts | 276° |
| 2026-04-29 19:40 | 56.50990 | -130.70102 | 27092 ft | 362 kts | 276° |
| 2026-04-29 19:40 | 56.51388 | -130.74628 | 26649 ft | 359 kts | 276° |
| 2026-04-29 19:41 | 56.51778 | -130.79074 | 26250 ft | 356 kts | 276° |
| 2026-04-29 19:41 | 56.52160 | -130.83460 | 25858 ft | 353 kts | 276° |
| 2026-04-29 19:41 | 56.52543 | -130.87868 | 25666 ft | 360 kts | 275° |
| 2026-04-29 19:41 | 56.52937 | -130.92482 | 25453 ft | 382 kts | 275° |
| 2026-04-29 19:42 | 56.53354 | -130.97398 | 25235 ft | 403 kts | 275° |
| 2026-04-29 19:42 | 56.53638 | -131.00738 | 25084 ft | 410 kts | 275° |
| 2026-04-29 19:42 | 56.54224 | -131.07588 | 24663 ft | 408 kts | 275° |
| 2026-04-29 19:42 | 56.54659 | -131.12628 | 24123 ft | 403 kts | 275° |
| 2026-04-29 19:43 | 56.55089 | -131.17632 | 23595 ft | 397 kts | 275° |
| 2026-04-29 19:43 | 56.55504 | -131.22546 | 23027 ft | 392 kts | 275° |
| 2026-04-29 19:43 | 56.55911 | -131.27404 | 22510 ft | 387 kts | 275° |
| 2026-04-29 19:43 | 56.56311 | -131.32200 | 21964 ft | 383 kts | 274° |
| 2026-04-29 19:44 | 56.56704 | -131.36956 | 21458 ft | 379 kts | 274° |
| 2026-04-29 19:44 | 56.57092 | -131.41650 | 20950 ft | 375 kts | 274° |
| 2026-04-29 19:44 | 56.57474 | -131.46306 | 20454 ft | 372 kts | 274° |
| 2026-04-29 19:44 | 56.57851 | -131.50930 | 19956 ft | 369 kts | 274° |
| 2026-04-29 19:45 | 56.58221 | -131.55471 | 19477 ft | 367 kts | 274° |
| 2026-04-29 19:45 | 56.58592 | -131.60071 | 18991 ft | 364 kts | 274° |
| 2026-04-29 19:45 | 56.58955 | -131.64611 | 18448 ft | 361 kts | 273° |
| 2026-04-29 19:45 | 56.59313 | -131.69080 | 17927 ft | 356 kts | 273° |
| 2026-04-29 19:46 | 56.59664 | -131.73461 | 17445 ft | 352 kts | 274° |
| 2026-04-29 19:46 | 56.60011 | -131.77847 | 16708 ft | 357 kts | 274° |
| 2026-04-29 19:46 | 56.60364 | -131.82338 | 16191 ft | 359 kts | 273° |
| 2026-04-29 19:46 | 56.60714 | -131.86806 | 15722 ft | 358 kts | 274° |
| 2026-04-29 19:47 | 56.61060 | -131.91171 | 15310 ft | 341 kts | 273° |
| 2026-04-29 19:47 | 56.61391 | -131.95362 | 14892 ft | 328 kts | 273° |
| 2026-04-29 19:47 | 56.61705 | -131.99387 | 14523 ft | 316 kts | 273° |
| 2026-04-29 19:47 | 56.62006 | -132.03267 | 14170 ft | 305 kts | 272° |
| 2026-04-29 19:48 | 56.62292 | -132.06991 | 13756 ft | 296 kts | 272° |
| 2026-04-29 19:48 | 56.62481 | -132.09458 | 13527 ft | 288 kts | 273° |
| 2026-04-29 19:48 | 56.62838 | -132.14116 | 13081 ft | 274 kts | 272° |
| 2026-04-29 19:48 | 56.63095 | -132.17485 | 12775 ft | 265 kts | 272° |
| 2026-04-29 19:49 | 56.63346 | -132.20743 | 12454 ft | 257 kts | 272° |
| 2026-04-29 19:49 | 56.63583 | -132.23903 | 12194 ft | 248 kts | 272° |
| 2026-04-29 19:49 | 56.63812 | -132.26970 | 11901 ft | 244 kts | 272° |
| 2026-04-29 19:49 | 56.64036 | -132.29992 | 11600 ft | 239 kts | 272° |
| 2026-04-29 19:50 | 56.64256 | -132.32959 | 11324 ft | 233 kts | 272° |
| 2026-04-29 19:50 | 56.64471 | -132.35864 | 11092 ft | 232 kts | 272° |
| 2026-04-29 19:50 | 56.64682 | -132.38740 | 10858 ft | 230 kts | 272° |
| 2026-04-29 19:50 | 56.64900 | -132.41610 | 10514 ft | 227 kts | 274° |
| 2026-04-29 19:51 | 56.65065 | -132.44331 | 10468 ft | 215 kts | 274° |
| 2026-04-29 19:51 | 56.65421 | -132.47017 | 10359 ft | 217 kts | 278° |
| 2026-04-29 19:51 | 56.65777 | -132.49643 | 10221 ft | 213 kts | 278° |
| 2026-04-29 19:51 | 56.66125 | -132.52251 | 10150 ft | 211 kts | 278° |
| 2026-04-29 19:52 | 56.66465 | -132.54861 | 10088 ft | 214 kts | 278° |
| 2026-04-29 19:52 | 56.66807 | -132.57512 | 9932 ft | 217 kts | 278° |
| 2026-04-29 19:52 | 56.67151 | -132.60206 | 9696 ft | 219 kts | 278° |
| 2026-04-29 19:52 | 56.67493 | -132.62880 | 9411 ft | 216 kts | 278° |
| 2026-04-29 19:53 | 56.67835 | -132.65534 | 9132 ft | 212 kts | 278° |
| 2026-04-29 19:53 | 56.68170 | -132.68119 | 8856 ft | 210 kts | 278° |
| 2026-04-29 19:53 | 56.68501 | -132.70661 | 8615 ft | 210 kts | 278° |
| 2026-04-29 19:53 | 56.68841 | -132.73250 | 8386 ft | 208 kts | 277° |
| 2026-04-29 19:54 | 56.69514 | -132.78353 | 7875 ft | 208 kts | 278° |
| 2026-04-29 19:54 | 56.69854 | -132.80902 | 7622 ft | 207 kts | 278° |
| 2026-04-29 19:54 | 56.70196 | -132.83471 | 7376 ft | 207 kts | 277° |
| 2026-04-29 19:55 | 56.70543 | -132.86022 | 7175 ft | 208 kts | 279° |
| 2026-04-29 19:55 | 56.70949 | -132.88567 | 6877 ft | 210 kts | 278° |
| 2026-04-29 19:55 | 56.71339 | -132.91157 | 6636 ft | 213 kts | 283° |
| 2026-04-29 19:55 | 56.71838 | -132.93696 | 6368 ft | 214 kts | 283° |
| 2026-04-29 19:56 | 56.72345 | -132.96240 | 6117 ft | 213 kts | 283° |
| 2026-04-29 19:56 | 56.72849 | -132.98764 | 6062 ft | 213 kts | 283° |
| 2026-04-29 19:56 | 56.73198 | -133.00468 | 6006 ft | 216 kts | 284° |
| 2026-04-29 19:56 | 56.74030 | -133.03791 | 6008 ft | 222 kts | 293° |
| 2026-04-29 19:57 | 56.74677 | -133.06320 | 5981 ft | 214 kts | 273° |
| 2026-04-29 19:57 | 56.74685 | -133.08057 | 5976 ft | 196 kts | 249° |
| 2026-04-29 19:57 | 56.73575 | -133.09915 | 6024 ft | 178 kts | 187° |
| 2026-04-29 19:57 | 56.72734 | -133.10009 | 6090 ft | 179 kts | 181° |
| 2026-04-29 19:58 | 56.71489 | -133.10023 | 6006 ft | 176 kts | 176° |
| 2026-04-29 19:58 | 56.70387 | -133.09364 | 5993 ft | 164 kts | 153° |
| 2026-04-29 19:58 | 56.69610 | -133.07916 | 5998 ft | 157 kts | 133° |
| 2026-04-29 19:58 | 56.68949 | -133.06335 | 5956 ft | 157 kts | 134° |
| 2026-04-29 19:59 | 56.68253 | -133.04745 | 5996 ft | 165 kts | 136° |
| 2026-04-29 19:59 | 56.67503 | -133.03141 | 5950 ft | 166 kts | 136° |
| 2026-04-29 19:59 | 56.66784 | -133.01543 | 6030 ft | 162 kts | 137° |
| 2026-04-29 19:59 | 56.66012 | -132.99946 | 6002 ft | 169 kts | 135° |
| 2026-04-29 20:00 | 56.65278 | -132.98304 | 5993 ft | 171 kts | 135° |
| 2026-04-29 20:00 | 56.64476 | -132.96513 | 5993 ft | 183 kts | 135° |
| 2026-04-29 20:00 | 56.63673 | -132.94738 | 6004 ft | 185 kts | 135° |
| 2026-04-29 20:00 | 56.62858 | -132.92939 | 5992 ft | 185 kts | 135° |
| 2026-04-29 20:01 | 56.62093 | -132.91043 | 5991 ft | 187 kts | 127° |
| 2026-04-29 20:01 | 56.61396 | -132.89018 | 5793 ft | 191 kts | 129° |
| 2026-04-29 20:01 | 56.60664 | -132.87026 | 5581 ft | 190 kts | 128° |
| 2026-04-29 20:01 | 56.59961 | -132.85069 | 5407 ft | 181 kts | 129° |
| 2026-04-29 20:02 | 56.59430 | -132.82947 | 5232 ft | 190 kts | 111° |
| 2026-04-29 20:02 | 56.58909 | -132.80853 | 5045 ft | 176 kts | 130° |
| 2026-04-29 20:02 | 56.58316 | -132.78881 | 4906 ft | 190 kts | 120° |
| 2026-04-29 20:02 | 56.57957 | -132.77367 | 4744 ft | 193 kts | 119° |
| 2026-04-29 20:03 | 56.57281 | -132.74431 | 4478 ft | 186 kts | 119° |
| 2026-04-29 20:03 | 56.56788 | -132.72309 | 4296 ft | 184 kts | 119° |
| 2026-04-29 20:03 | 56.56286 | -132.70167 | 4133 ft | 183 kts | 119° |
| 2026-04-29 20:03 | 56.55794 | -132.68058 | 3959 ft | 181 kts | 118° |
| 2026-04-29 20:04 | 56.55322 | -132.66025 | 3745 ft | 168 kts | 119° |
| 2026-04-29 20:04 | 56.54886 | -132.64156 | 3554 ft | 155 kts | 120° |
| 2026-04-29 20:04 | 56.54490 | -132.62450 | 3425 ft | 141 kts | 120° |
| 2026-04-29 20:04 | 56.54112 | -132.60832 | 3215 ft | 138 kts | 120° |
| 2026-04-29 20:05 | 56.53746 | -132.59259 | 3037 ft | 133 kts | 120° |
| 2026-04-29 20:05 | 56.53392 | -132.57743 | 2885 ft | 134 kts | 116° |
| 2026-04-29 20:05 | 56.53017 | -132.56143 | 2691 ft | 137 kts | 117° |
| 2026-04-29 20:05 | 56.52783 | -132.54458 | 2537 ft | 143 kts | 99° |
| 2026-04-29 20:06 | 56.52666 | -132.52800 | 2542 ft | 132 kts | 104° |
| 2026-04-29 20:06 | 56.52455 | -132.51129 | 2429 ft | 134 kts | 109° |
| 2026-04-29 20:06 | 56.52209 | -132.49467 | 2299 ft | 138 kts | 108° |
| 2026-04-29 20:06 | 56.51939 | -132.47809 | 2051 ft | 137 kts | 111° |
| 2026-04-29 20:07 | 56.51558 | -132.46187 | 1762 ft | 142 kts | 113° |
| 2026-04-29 20:07 | 56.51131 | -132.44531 | 1396 ft | 144 kts | 118° |
| 2026-04-29 20:07 | 56.50632 | -132.42980 | 1063 ft | 140 kts | 122° |
| 2026-04-29 20:07 | 56.50078 | -132.41547 | 661 ft | 142 kts | 124° |
| 2026-04-29 20:08 | 56.49527 | -132.40069 | 331 ft | 136 kts | 124° |
| 2026-04-29 20:08 | 56.49174 | -132.39125 | 205 ft | 138 kts | 123° |
| 2026-04-29 20:08 | 56.48547 | -132.37307 | 34 ft | 110 kts | 120° |
| 2026-04-29 20:08 | 56.48408 | -132.36894 | 35 ft | 3 kts | 200° |
| 2026-04-29 20:09 | 56.48443 | -132.37056 | 35 ft | 24 kts | 303° |
| 2026-04-29 20:09 | 56.48512 | -132.37325 | 32 ft | 23 kts | 272° |
| 2026-04-29 20:09 | 56.48510 | -132.37480 | 35 ft | 10 kts | 268° |
| 2026-04-29 20:09 | 56.48508 | -132.37611 | 35 ft | 8 kts | 268° |
| 2026-04-29 20:10 | 56.48508 | -132.37635 | 35 ft | 0 kts | 268° |
| 2026-04-29 20:10 | 56.48493 | -132.37644 | 34 ft | 4 kts | 163° |
| 2026-04-29 20:10 | 56.48461 | -132.37577 | 34 ft | 8 kts | 121° |
| 2026-04-29 20:10 | 56.48445 | -132.37554 | 35 ft | 2 kts | 185° |
| 2026-04-29 20:11 | 56.48442 | -132.37566 | 35 ft | 1 kts | 266° |
| 2026-04-29 20:11 | 56.48444 | -132.37571 | 35 ft | 0 kts | 303° |
| 2026-04-29 20:11 | 56.48445 | -132.37573 | 35 ft | 0 kts | 300° |
| 2026-04-29 20:11 | 56.48445 | -132.37574 | 35 ft | 0 kts | 300° |